createdAt,value
2022-12-18T00:00:27.848Z,-6.72
2022-12-18T00:01:27.928Z,-6.66
2022-12-18T00:02:27.937Z,-6.72
2022-12-18T00:03:28.025Z,-6.96
2022-12-18T00:04:27.921Z,-7.29
2022-12-18T00:05:27.831Z,-7.53
2022-12-18T00:06:27.841Z,-7.56
2022-12-18T00:07:27.832Z,-7.46
2022-12-18T00:08:27.882Z,-7.39
2022-12-18T00:09:30.964Z,-7.35
2022-12-18T00:10:28.813Z,-7.28
2022-12-18T00:11:27.827Z,-7.23
2022-12-18T00:12:29.885Z,-7.21
2022-12-18T00:13:27.788Z,-7.05
2022-12-18T00:14:27.803Z,-7.10
2022-12-18T00:15:27.802Z,-6.99
2022-12-18T00:16:28.052Z,-6.90
2022-12-18T00:17:27.781Z,-6.96
2022-12-18T00:18:27.751Z,-6.85
2022-12-18T00:19:27.851Z,-6.85
2022-12-18T00:20:27.739Z,-6.90
2022-12-18T00:21:27.954Z,-6.85
2022-12-18T00:22:27.746Z,-6.84
2022-12-18T00:23:27.706Z,-6.79
2022-12-18T00:24:27.724Z,-6.90
2022-12-18T00:25:27.732Z,-6.92
2022-12-18T00:26:27.747Z,-6.92
2022-12-18T00:27:27.683Z,-6.81
2022-12-18T00:28:27.696Z,-6.87
2022-12-18T00:29:27.681Z,-6.96
2022-12-18T00:30:27.694Z,-6.89
2022-12-18T00:31:27.719Z,-6.93
2022-12-18T00:32:27.675Z,-6.96
2022-12-18T00:33:27.708Z,-7.11
2022-12-18T00:34:27.675Z,-7.18
2022-12-18T00:35:27.735Z,-7.42
2022-12-18T00:36:27.691Z,-7.45
2022-12-18T00:37:27.651Z,-7.62
2022-12-18T00:38:27.644Z,-7.60
2022-12-18T00:39:27.650Z,-7.53
2022-12-18T00:40:27.756Z,-7.57
2022-12-18T00:41:27.656Z,-7.67
2022-12-18T00:42:27.632Z,-7.77
2022-12-18T00:43:27.606Z,-7.73
2022-12-18T00:44:27.697Z,-7.70
2022-12-18T00:45:27.699Z,-7.60
2022-12-18T00:46:27.631Z,-7.59
2022-12-18T00:47:27.575Z,-7.50
2022-12-18T00:48:27.561Z,-7.41
2022-12-18T00:49:28.553Z,-7.31
2022-12-18T00:50:27.556Z,-7.18
2022-12-18T00:51:27.566Z,-7.13
2022-12-18T00:52:28.547Z,-7.17
2022-12-18T00:53:27.515Z,-7.14
2022-12-18T00:54:27.505Z,-7.17
2022-12-18T00:55:27.598Z,-7.11
2022-12-18T00:56:27.553Z,-7.46
2022-12-18T00:57:27.566Z,-7.80
2022-12-18T00:58:27.491Z,-8.13
2022-12-18T00:59:27.527Z,-8.27
2022-12-18T01:00:27.573Z,-8.45
2022-12-18T01:01:27.603Z,-8.50
2022-12-18T01:02:27.673Z,-8.68
2022-12-18T01:03:27.494Z,-8.82
2022-12-18T01:04:27.459Z,-8.85
2022-12-18T01:05:27.474Z,-8.66
2022-12-18T01:06:27.446Z,-8.67
2022-12-18T01:07:27.425Z,-8.63
2022-12-18T01:08:27.492Z,-8.49
2022-12-18T01:09:27.419Z,-8.32
2022-12-18T01:10:27.424Z,-8.25
2022-12-18T01:11:27.399Z,-8.16
2022-12-18T01:12:27.394Z,-8.14
2022-12-18T01:13:27.446Z,-8.10
2022-12-18T01:14:27.391Z,-8.07
2022-12-18T01:15:27.438Z,-7.95
2022-12-18T01:16:27.438Z,-7.95
2022-12-18T01:17:27.407Z,-7.94
2022-12-18T01:18:27.395Z,-7.85
2022-12-18T01:19:27.403Z,-7.80
2022-12-18T01:20:27.369Z,-7.74
2022-12-18T01:21:27.342Z,-7.71
2022-12-18T01:22:27.328Z,-7.60
2022-12-18T01:23:27.352Z,-7.57
2022-12-18T01:24:27.359Z,-7.64
2022-12-18T01:25:27.297Z,-7.64
2022-12-18T01:26:27.345Z,-7.59
2022-12-18T01:27:27.301Z,-7.64
2022-12-18T01:28:27.309Z,-7.59
2022-12-18T01:29:27.313Z,-7.53
2022-12-18T01:30:27.319Z,-7.50
2022-12-18T01:31:27.442Z,-7.49
2022-12-18T01:32:27.273Z,-7.49
2022-12-18T01:33:27.272Z,-7.45
2022-12-18T01:34:27.308Z,-7.50
2022-12-18T01:35:27.267Z,-7.50
2022-12-18T01:36:27.240Z,-7.39
2022-12-18T01:37:27.244Z,-7.50
2022-12-18T01:38:27.245Z,-7.41
2022-12-18T01:39:27.207Z,-7.50
2022-12-18T01:40:27.330Z,-7.60
2022-12-18T01:41:27.218Z,-7.70
2022-12-18T01:42:27.171Z,-7.76
2022-12-18T01:43:27.196Z,-7.89
2022-12-18T01:44:27.187Z,-8.32
2022-12-18T01:45:27.239Z,-8.63
2022-12-18T01:46:27.173Z,-8.67
2022-12-18T01:47:27.173Z,-8.50
2022-12-18T01:48:27.183Z,-8.40
2022-12-18T01:49:27.181Z,-8.40
2022-12-18T01:50:27.148Z,-8.39
2022-12-18T01:51:27.114Z,-8.27
2022-12-18T01:52:27.111Z,-8.16
2022-12-18T01:53:27.141Z,-8.10
2022-12-18T01:54:27.122Z,-7.99
2022-12-18T01:55:27.176Z,-7.99
2022-12-18T01:56:27.144Z,-7.82
2022-12-18T01:57:27.094Z,-7.88
2022-12-18T01:58:27.116Z,-7.76
2022-12-18T01:59:27.094Z,-7.77
2022-12-18T02:00:27.166Z,-7.67
2022-12-18T02:01:27.225Z,-7.71
2022-12-18T02:02:27.193Z,-7.62
2022-12-18T02:03:27.144Z,-7.64
2022-12-18T02:04:27.059Z,-7.55
2022-12-18T02:05:27.101Z,-7.53
2022-12-18T02:06:27.044Z,-7.57
2022-12-18T02:07:27.067Z,-7.67
2022-12-18T02:08:27.042Z,-7.78
2022-12-18T02:09:27.016Z,-7.78
2022-12-18T02:10:27.014Z,-7.80
2022-12-18T02:11:27.048Z,-7.95
2022-12-18T02:12:27.001Z,-7.94
2022-12-18T02:13:28.098Z,-7.88
2022-12-18T02:14:26.987Z,-7.85
2022-12-18T02:15:27.114Z,-7.88
2022-12-18T02:16:27.068Z,-7.88
2022-12-18T02:17:26.991Z,-7.82
2022-12-18T02:18:26.967Z,-7.94
2022-12-18T02:19:26.988Z,-7.96
2022-12-18T02:20:27.005Z,-8.13
2022-12-18T02:21:26.995Z,-8.21
2022-12-18T02:22:26.960Z,-8.42
2022-12-18T02:23:26.916Z,-8.40
2022-12-18T02:24:26.973Z,-8.29
2022-12-18T02:25:26.952Z,-8.35
2022-12-18T02:26:26.954Z,-8.35
2022-12-18T02:27:26.953Z,-8.35
2022-12-18T02:28:26.917Z,-8.17
2022-12-18T02:29:26.980Z,-8.13
2022-12-18T02:30:26.916Z,-8.17
2022-12-18T02:31:26.912Z,-8.16
2022-12-18T02:32:26.878Z,-8.17
2022-12-18T02:33:26.870Z,-8.13
2022-12-18T02:34:26.928Z,-8.10
2022-12-18T02:35:26.857Z,-8.13
2022-12-18T02:36:26.926Z,-8.08
2022-12-18T02:37:26.869Z,-8.18
2022-12-18T02:38:26.840Z,-8.18
2022-12-18T02:39:26.864Z,-8.34
2022-12-18T02:40:26.858Z,-8.49
2022-12-18T02:41:26.850Z,-8.89
2022-12-18T02:42:26.855Z,-9.05
2022-12-18T02:43:26.850Z,-9.16
2022-12-18T02:44:26.800Z,-9.24
2022-12-18T02:45:26.863Z,-9.45
2022-12-18T02:46:26.786Z,-9.26
2022-12-18T02:47:26.870Z,-9.27
2022-12-18T02:48:26.778Z,-9.27
2022-12-18T02:49:26.768Z,-9.57
2022-12-18T02:50:26.800Z,-9.74
2022-12-18T02:51:26.782Z,-9.72
2022-12-18T02:52:26.779Z,-9.57
2022-12-18T02:53:26.810Z,-9.45
2022-12-18T02:54:26.765Z,-9.31
2022-12-18T02:55:26.757Z,-9.18
2022-12-18T02:56:26.793Z,-9.03
2022-12-18T02:57:26.784Z,-8.99
2022-12-18T02:58:26.763Z,-8.94
2022-12-18T02:59:26.745Z,-8.92
2022-12-18T03:00:26.777Z,-9.14
2022-12-18T03:01:26.753Z,-9.18
2022-12-18T03:02:27.002Z,-9.36
2022-12-18T03:03:26.864Z,-9.58
2022-12-18T03:04:26.740Z,-9.78
2022-12-18T03:05:26.674Z,-9.74
2022-12-18T03:06:26.657Z,-9.72
2022-12-18T03:07:26.679Z,-9.87
2022-12-18T03:08:26.725Z,-9.87
2022-12-18T03:09:26.664Z,-9.90
2022-12-18T03:10:26.668Z,-9.88
2022-12-18T03:11:26.674Z,-9.87
2022-12-18T03:12:26.663Z,-9.82
2022-12-18T03:13:26.643Z,-9.63
2022-12-18T03:14:26.682Z,-9.39
2022-12-18T03:15:26.659Z,-9.18
2022-12-18T03:16:26.713Z,-8.96
2022-12-18T03:17:26.642Z,-8.86
2022-12-18T03:18:26.705Z,-8.64
2022-12-18T03:19:26.619Z,-8.53
2022-12-18T03:20:26.658Z,-8.42
2022-12-18T03:21:26.589Z,-8.43
2022-12-18T03:22:26.578Z,-8.28
2022-12-18T03:23:26.624Z,-8.17
2022-12-18T03:24:27.528Z,-8.21
2022-12-18T03:25:26.756Z,-8.08
2022-12-18T03:26:26.624Z,-8.08
2022-12-18T03:27:26.562Z,-8.03
2022-12-18T03:28:26.553Z,-7.94
2022-12-18T03:29:26.569Z,-7.92
2022-12-18T03:30:26.527Z,-7.92
2022-12-18T03:31:26.643Z,-7.89
2022-12-18T03:32:26.541Z,-8.03
2022-12-18T03:33:26.577Z,-8.10
2022-12-18T03:34:26.597Z,-8.18
2022-12-18T03:35:26.641Z,-8.10
2022-12-18T03:36:26.559Z,-8.04
2022-12-18T03:37:26.535Z,-8.10
2022-12-18T03:38:26.543Z,-8.34
2022-12-18T03:39:26.523Z,-8.27
2022-12-18T03:40:26.533Z,-8.27
2022-12-18T03:41:26.499Z,-8.43
2022-12-18T03:42:26.542Z,-8.61
2022-12-18T03:43:26.515Z,-8.79
2022-12-18T03:44:26.474Z,-8.86
2022-12-18T03:45:26.464Z,-8.91
2022-12-18T03:46:26.608Z,-8.81
2022-12-18T03:47:26.482Z,-8.81
2022-12-18T03:48:26.469Z,-8.89
2022-12-18T03:49:26.556Z,-9.09
2022-12-18T03:50:26.522Z,-9.20
2022-12-18T03:51:26.417Z,-9.07
2022-12-18T03:52:26.401Z,-8.96
2022-12-18T03:53:26.472Z,-8.86
2022-12-18T03:54:26.407Z,-8.85
2022-12-18T03:55:26.392Z,-8.85
2022-12-18T03:56:26.488Z,-8.94
2022-12-18T03:57:26.388Z,-9.00
2022-12-18T03:58:26.416Z,-8.96
2022-12-18T03:59:26.373Z,-8.94
2022-12-18T04:00:26.379Z,-9.06
2022-12-18T04:01:26.494Z,-9.21
2022-12-18T04:02:26.487Z,-9.36
2022-12-18T04:03:26.938Z,-9.35
2022-12-18T04:04:27.400Z,-9.43
2022-12-18T04:05:26.428Z,-9.27
2022-12-18T04:06:26.377Z,-9.12
2022-12-18T04:07:26.351Z,-9.06
2022-12-18T04:08:26.384Z,-8.99
2022-12-18T04:09:26.328Z,-8.86
2022-12-18T04:10:26.353Z,-8.81
2022-12-18T04:11:26.336Z,-8.82
2022-12-18T04:12:26.341Z,-8.64
2022-12-18T04:13:26.325Z,-8.56
2022-12-18T04:14:26.383Z,-8.43
2022-12-18T04:15:26.299Z,-8.46
2022-12-18T04:16:26.300Z,-8.49
2022-12-18T04:17:26.257Z,-8.45
2022-12-18T04:18:26.291Z,-8.47
2022-12-18T04:19:26.271Z,-8.50
2022-12-18T04:20:26.300Z,-8.43
2022-12-18T04:21:26.251Z,-8.55
2022-12-18T04:22:26.328Z,-8.63
2022-12-18T04:23:26.231Z,-8.74
2022-12-18T04:24:26.252Z,-8.91
2022-12-18T04:25:26.216Z,-8.99
2022-12-18T04:26:26.267Z,-9.09
2022-12-18T04:27:26.270Z,-9.06
2022-12-18T04:28:26.204Z,-9.10
2022-12-18T04:29:26.205Z,-9.10
2022-12-18T04:30:26.216Z,-9.23
2022-12-18T04:31:26.278Z,-9.47
2022-12-18T04:32:26.241Z,-9.64
2022-12-18T04:33:26.193Z,-9.74
2022-12-18T04:34:26.177Z,-9.54
2022-12-18T04:35:26.403Z,-9.49
2022-12-18T04:36:26.230Z,-9.50
2022-12-18T04:37:26.203Z,-9.54
2022-12-18T04:38:32.078Z,-9.64
2022-12-18T04:39:27.235Z,-9.75
2022-12-18T04:40:26.152Z,-9.75
2022-12-18T04:41:26.173Z,-9.74
2022-12-18T04:42:26.182Z,-9.64
2022-12-18T04:43:26.149Z,-9.56
2022-12-18T04:44:26.123Z,-9.63
2022-12-18T04:45:26.137Z,-9.63
2022-12-18T04:46:26.323Z,-9.36
2022-12-18T04:47:26.144Z,-9.28
2022-12-18T04:48:26.110Z,-9.28
2022-12-18T04:49:26.134Z,-9.27
2022-12-18T04:50:26.103Z,-9.18
2022-12-18T04:51:26.855Z,-9.35
2022-12-18T04:52:27.119Z,-9.18
2022-12-18T04:53:26.125Z,-9.21
2022-12-18T04:54:26.059Z,-9.28
2022-12-18T04:55:26.148Z,-9.67
2022-12-18T04:56:26.125Z,-9.74
2022-12-18T04:57:26.044Z,-9.77
2022-12-18T04:58:26.183Z,-9.85
2022-12-18T04:59:26.029Z,-9.81
2022-12-18T05:00:26.041Z,-9.81
2022-12-18T05:01:30.985Z,-9.77
2022-12-18T05:02:28.130Z,-9.78
2022-12-18T05:03:26.108Z,-9.78
2022-12-18T05:04:26.091Z,-9.56
2022-12-18T05:05:26.002Z,-9.49
2022-12-18T05:06:26.042Z,-9.38
2022-12-18T05:07:26.028Z,-9.39
2022-12-18T05:08:26.027Z,-9.49
2022-12-18T05:09:26.093Z,-9.54
2022-12-18T05:10:25.977Z,-9.64
2022-12-18T05:11:26.083Z,-9.97
2022-12-18T05:12:25.955Z,-10.17
2022-12-18T05:13:25.963Z,-10.34
2022-12-18T05:14:26.004Z,-10.55
2022-12-18T05:15:25.999Z,-10.44
2022-12-18T05:16:26.035Z,-10.60
2022-12-18T05:17:25.956Z,-10.46
2022-12-18T05:18:25.946Z,-10.35
2022-12-18T05:19:25.976Z,-10.06
2022-12-18T05:20:25.933Z,-9.99
2022-12-18T05:21:25.987Z,-9.84
2022-12-18T05:22:25.984Z,-9.78
2022-12-18T05:23:26.381Z,-9.75
2022-12-18T05:24:25.917Z,-9.67
2022-12-18T05:25:26.074Z,-9.87
2022-12-18T05:26:26.983Z,-9.97
2022-12-18T05:27:26.004Z,-10.18
2022-12-18T05:28:25.948Z,-10.32
2022-12-18T05:29:26.015Z,-10.49
2022-12-18T05:30:25.890Z,-10.49
2022-12-18T05:31:25.953Z,-10.47
2022-12-18T05:32:25.907Z,-10.52
2022-12-18T05:33:25.890Z,-10.49
2022-12-18T05:34:25.918Z,-10.39
2022-12-18T05:35:25.865Z,-10.44
2022-12-18T05:36:25.949Z,-10.42
2022-12-18T05:37:25.865Z,-10.21
2022-12-18T05:38:25.827Z,-10.00
2022-12-18T05:39:25.894Z,-9.88
2022-12-18T05:40:25.847Z,-9.79
2022-12-18T05:41:25.835Z,-9.78
2022-12-18T05:42:25.845Z,-9.60
2022-12-18T05:43:25.865Z,-9.46
2022-12-18T05:44:25.836Z,-9.43
2022-12-18T05:45:25.833Z,-9.41
2022-12-18T05:46:25.881Z,-9.27
2022-12-18T05:47:25.811Z,-9.20
2022-12-18T05:48:25.815Z,-9.24
2022-12-18T05:49:25.844Z,-9.24
2022-12-18T05:50:25.812Z,-9.09
2022-12-18T05:51:25.801Z,-9.06
2022-12-18T05:52:25.825Z,-8.92
2022-12-18T05:53:25.764Z,-8.99
2022-12-18T05:54:25.763Z,-8.84
2022-12-18T05:55:25.758Z,-8.82
2022-12-18T05:56:25.724Z,-8.79
2022-12-18T05:57:25.737Z,-8.85
2022-12-18T05:58:25.729Z,-8.76
2022-12-18T05:59:25.839Z,-8.64
2022-12-18T06:00:25.743Z,-8.66
2022-12-18T06:01:25.886Z,-8.67
2022-12-18T06:02:25.798Z,-8.53
2022-12-18T06:03:29.375Z,-8.61
2022-12-18T06:04:27.752Z,-8.58
2022-12-18T06:05:25.723Z,-8.47
2022-12-18T06:06:25.697Z,-8.49
2022-12-18T06:07:25.684Z,-8.40
2022-12-18T06:08:25.697Z,-8.45
2022-12-18T06:09:25.692Z,-8.40
2022-12-18T06:10:25.727Z,-8.37
2022-12-18T06:11:25.751Z,-8.29
2022-12-18T06:12:25.707Z,-8.32
2022-12-18T06:13:25.696Z,-8.28
2022-12-18T06:14:25.769Z,-8.21
2022-12-18T06:15:25.819Z,-8.21
2022-12-18T06:16:25.766Z,-8.10
2022-12-18T06:17:25.672Z,-8.21
2022-12-18T06:18:25.661Z,-8.17
2022-12-18T06:19:25.785Z,-8.10
2022-12-18T06:20:30.411Z,-8.10
2022-12-18T06:21:27.682Z,-8.14
2022-12-18T06:22:25.664Z,-8.13
2022-12-18T06:23:25.625Z,-8.06
2022-12-18T06:24:25.732Z,-8.04
2022-12-18T06:25:25.661Z,-8.13
2022-12-18T06:26:28.230Z,-8.11
2022-12-18T06:27:26.644Z,-8.24
2022-12-18T06:28:25.735Z,-8.55
2022-12-18T06:29:25.609Z,-8.55
2022-12-18T06:30:25.621Z,-8.79
2022-12-18T06:31:25.772Z,-8.86
2022-12-18T06:32:25.722Z,-8.81
2022-12-18T06:33:25.573Z,-9.06
2022-12-18T06:34:25.602Z,-9.18
2022-12-18T06:35:25.646Z,-9.36
2022-12-18T06:36:25.719Z,-9.63
2022-12-18T06:37:25.581Z,-9.81
2022-12-18T06:38:25.581Z,-9.96
2022-12-18T06:39:25.527Z,-10.17
2022-12-18T06:40:25.556Z,-10.18
2022-12-18T06:41:25.571Z,-10.16
2022-12-18T06:42:25.553Z,-9.93
2022-12-18T06:43:25.547Z,-9.88
2022-12-18T06:44:25.496Z,-9.84
2022-12-18T06:45:25.553Z,-9.84
2022-12-18T06:46:25.487Z,-9.96
2022-12-18T06:47:25.594Z,-10.16
2022-12-18T06:48:25.539Z,-10.26
2022-12-18T06:49:30.259Z,-10.29
2022-12-18T06:50:27.457Z,-10.16
2022-12-18T06:51:25.471Z,-10.10
2022-12-18T06:52:25.439Z,-9.92
2022-12-18T06:53:25.511Z,-9.87
2022-12-18T06:54:25.451Z,-9.90
2022-12-18T06:55:25.435Z,-10.08
2022-12-18T06:56:25.444Z,-10.21
2022-12-18T06:57:25.450Z,-10.46
2022-12-18T06:58:25.423Z,-10.52
2022-12-18T06:59:25.523Z,-10.57
2022-12-18T07:00:25.447Z,-10.57
2022-12-18T07:01:25.510Z,-10.63
2022-12-18T07:02:25.494Z,-10.46
2022-12-18T07:03:25.426Z,-10.37
2022-12-18T07:04:25.443Z,-10.18
2022-12-18T07:05:25.417Z,-10.16
2022-12-18T07:06:25.376Z,-10.03
2022-12-18T07:07:25.367Z,-10.03
2022-12-18T07:08:25.356Z,-10.03
2022-12-18T07:09:25.472Z,-9.97
2022-12-18T07:10:25.426Z,-9.85
2022-12-18T07:11:25.389Z,-9.84
2022-12-18T07:12:25.340Z,-9.68
2022-12-18T07:13:25.386Z,-9.67
2022-12-18T07:14:25.407Z,-9.53
2022-12-18T07:15:25.335Z,-9.38
2022-12-18T07:16:26.089Z,-9.38
2022-12-18T07:17:26.310Z,-9.38
2022-12-18T07:18:25.306Z,-9.17
2022-12-18T07:19:25.349Z,-9.17
2022-12-18T07:20:25.336Z,-9.26
2022-12-18T07:21:25.459Z,-9.24
2022-12-18T07:22:25.303Z,-9.16
2022-12-18T07:23:25.260Z,-9.09
2022-12-18T07:24:25.275Z,-9.00
2022-12-18T07:25:25.252Z,-9.03
2022-12-18T07:26:25.251Z,-8.96
2022-12-18T07:27:25.262Z,-9.06
2022-12-18T07:28:25.230Z,-8.99
2022-12-18T07:29:25.246Z,-9.03
2022-12-18T07:30:25.209Z,-8.97
2022-12-18T07:31:25.353Z,-8.97
2022-12-18T07:32:25.251Z,-9.02
2022-12-18T07:33:25.199Z,-8.97
2022-12-18T07:34:25.220Z,-8.97
2022-12-18T07:35:31.075Z,-8.96
2022-12-18T07:36:27.312Z,-8.97
2022-12-18T07:37:25.241Z,-9.00
2022-12-18T07:38:25.165Z,-9.05
2022-12-18T07:39:25.184Z,-9.14
2022-12-18T07:40:25.153Z,-9.05
2022-12-18T07:41:25.193Z,-9.12
2022-12-18T07:42:25.199Z,-9.17
2022-12-18T07:43:25.151Z,-9.30
2022-12-18T07:44:25.170Z,-9.39
2022-12-18T07:45:25.290Z,-9.64
2022-12-18T07:46:25.180Z,-9.92
2022-12-18T07:47:25.136Z,-10.02
2022-12-18T07:48:25.114Z,-10.05
2022-12-18T07:49:25.132Z,-10.03
2022-12-18T07:50:25.100Z,-9.88
2022-12-18T07:51:25.121Z,-9.82
2022-12-18T07:52:26.329Z,-9.79
2022-12-18T07:53:26.099Z,-9.60
2022-12-18T07:54:25.163Z,-9.45
2022-12-18T07:55:25.111Z,-9.41
2022-12-18T07:56:28.235Z,-9.31
2022-12-18T07:57:50.790Z,-9.20
2022-12-18T07:58:27.095Z,-9.09
2022-12-18T07:59:25.109Z,-9.00
2022-12-18T08:00:25.106Z,-8.89
2022-12-18T08:01:25.231Z,-8.86
2022-12-18T08:02:25.200Z,-8.68
2022-12-18T08:03:25.128Z,-8.53
2022-12-18T08:04:25.067Z,-8.52
2022-12-18T08:05:25.060Z,-8.40
2022-12-18T08:06:25.108Z,-8.27
2022-12-18T08:07:25.027Z,-8.22
2022-12-18T08:08:25.089Z,-8.13
2022-12-18T08:09:25.049Z,-8.10
2022-12-18T08:10:25.016Z,-8.17
2022-12-18T08:11:25.041Z,-8.04
2022-12-18T08:12:25.038Z,-7.92
2022-12-18T08:13:24.979Z,-7.82
2022-12-18T08:14:24.999Z,-7.92
2022-12-18T08:15:25.001Z,-7.87
2022-12-18T08:16:26.045Z,-7.94
2022-12-18T08:17:24.997Z,-7.96
2022-12-18T08:18:25.003Z,-7.88
2022-12-18T08:19:25.061Z,-7.88
2022-12-18T08:20:25.023Z,-7.85
2022-12-18T08:21:24.976Z,-7.80
2022-12-18T08:22:24.975Z,-7.77
2022-12-18T08:23:28.635Z,-7.82
2022-12-18T08:24:24.988Z,-7.82
2022-12-18T08:25:25.019Z,-7.85
2022-12-18T08:26:24.945Z,-7.87
2022-12-18T08:27:29.698Z,-7.85
2022-12-18T08:28:26.926Z,-7.96
2022-12-18T08:29:24.927Z,-7.95
2022-12-18T08:30:25.048Z,-7.85
2022-12-18T08:31:24.915Z,-7.92
2022-12-18T08:32:24.980Z,-8.18
2022-12-18T08:33:24.949Z,-8.46
2022-12-18T08:34:24.892Z,-8.56
2022-12-18T08:35:24.891Z,-8.60
2022-12-18T08:36:24.871Z,-8.66
2022-12-18T08:37:24.896Z,-8.66
2022-12-18T08:38:24.894Z,-8.76
2022-12-18T08:39:24.927Z,-8.85
2022-12-18T08:40:24.988Z,-8.94
2022-12-18T08:41:24.854Z,-9.07
2022-12-18T08:42:24.872Z,-9.23
2022-12-18T08:43:24.871Z,-9.23
2022-12-18T08:44:24.875Z,-9.27
2022-12-18T08:45:24.821Z,-9.24
2022-12-18T08:46:24.940Z,-9.07
2022-12-18T08:47:24.856Z,-9.14
2022-12-18T08:48:24.808Z,-9.14
2022-12-18T08:49:24.803Z,-9.20
2022-12-18T08:50:24.925Z,-9.10
2022-12-18T08:51:24.780Z,-8.97
2022-12-18T08:52:24.799Z,-8.92
2022-12-18T08:53:24.817Z,-8.67
2022-12-18T08:54:24.799Z,-8.55
2022-12-18T08:55:24.770Z,-8.40
2022-12-18T08:56:24.823Z,-8.32
2022-12-18T08:57:24.762Z,-8.22
2022-12-18T08:58:24.780Z,-8.10
2022-12-18T08:59:24.764Z,-7.98
2022-12-18T09:00:24.796Z,-7.88
2022-12-18T09:01:24.882Z,-7.99
2022-12-18T09:02:24.808Z,-8.03
2022-12-18T09:03:24.741Z,-8.08
2022-12-18T09:04:24.717Z,-7.96
2022-12-18T09:05:24.697Z,-8.03
2022-12-18T09:06:24.707Z,-8.11
2022-12-18T09:07:24.673Z,-8.34
2022-12-18T09:08:24.720Z,-8.14
2022-12-18T09:09:24.669Z,-8.34
2022-12-18T09:10:24.650Z,-8.64
2022-12-18T09:11:25.679Z,-8.70
2022-12-18T09:12:24.710Z,-8.82
2022-12-18T09:13:24.677Z,-8.89
2022-12-18T09:14:24.635Z,-8.82
2022-12-18T09:15:24.614Z,-8.56
2022-12-18T09:16:28.773Z,-8.21
2022-12-18T09:17:26.681Z,-8.16
2022-12-18T09:18:24.634Z,-8.17
2022-12-18T09:19:25.629Z,-8.21
2022-12-18T09:20:24.608Z,-8.13
2022-12-18T09:21:24.655Z,-8.61
2022-12-18T09:22:24.590Z,-8.76
2022-12-18T09:23:24.610Z,-8.79
2022-12-18T09:24:24.568Z,-8.92
2022-12-18T09:25:24.589Z,-8.97
2022-12-18T09:26:24.579Z,-9.06
2022-12-18T09:27:24.617Z,-8.78
2022-12-18T09:28:24.610Z,-8.42
2022-12-18T09:29:24.540Z,-8.43
2022-12-18T09:30:24.516Z,-8.18
2022-12-18T09:31:24.610Z,-8.03
2022-12-18T09:32:24.599Z,-7.88
2022-12-18T09:33:24.530Z,-7.78
2022-12-18T09:34:24.585Z,-7.70
2022-12-18T09:35:24.498Z,-7.39
2022-12-18T09:36:24.492Z,-7.29
2022-12-18T09:37:24.520Z,-7.13
2022-12-18T09:38:24.471Z,-6.98
2022-12-18T09:39:24.483Z,-6.98
2022-12-18T09:40:24.483Z,-6.85
2022-12-18T09:41:24.451Z,-6.75
2022-12-18T09:42:24.493Z,-6.77
2022-12-18T09:43:24.428Z,-6.67
2022-12-18T09:44:24.696Z,-6.50
2022-12-18T09:45:24.420Z,-6.41
2022-12-18T09:46:24.469Z,-6.41
2022-12-18T09:47:24.410Z,-6.56
2022-12-18T09:48:24.409Z,-6.71
2022-12-18T09:49:24.435Z,-6.66
2022-12-18T09:50:24.508Z,-6.71
2022-12-18T09:51:24.406Z,-7.02
2022-12-18T09:52:24.405Z,-7.11
2022-12-18T09:53:24.385Z,-7.29
2022-12-18T09:54:24.435Z,-7.18
2022-12-18T09:55:24.390Z,-7.08
2022-12-18T09:56:24.386Z,-7.05
2022-12-18T09:57:24.385Z,-7.14
2022-12-18T09:58:24.330Z,-7.20
2022-12-18T09:59:24.385Z,-7.23
2022-12-18T10:00:24.488Z,-7.34
2022-12-18T10:01:24.505Z,-7.41
2022-12-18T10:02:24.403Z,-7.32
2022-12-18T10:03:24.298Z,-7.46
2022-12-18T10:04:24.366Z,-7.73
2022-12-18T10:05:24.317Z,-7.96
2022-12-18T10:06:24.320Z,-7.85
2022-12-18T10:07:24.272Z,-7.92
2022-12-18T10:08:24.274Z,-7.73
2022-12-18T10:09:24.269Z,-7.49
2022-12-18T10:10:24.257Z,-7.24
2022-12-18T10:11:24.292Z,-7.02
2022-12-18T10:12:24.239Z,-6.85
2022-12-18T10:13:24.324Z,-6.69
2022-12-18T10:14:24.232Z,-6.39
2022-12-18T10:15:24.228Z,-6.35
2022-12-18T10:16:30.125Z,-6.29
2022-12-18T10:17:25.278Z,-6.26
2022-12-18T10:18:24.208Z,-6.10
2022-12-18T10:19:24.235Z,-6.47
2022-12-18T10:20:24.187Z,-6.48
2022-12-18T10:21:24.175Z,-6.34
2022-12-18T10:22:24.389Z,-6.32
2022-12-18T10:23:24.182Z,-6.14
2022-12-18T10:24:24.254Z,-6.06
2022-12-18T10:25:24.155Z,-5.95
2022-12-18T10:26:24.154Z,-5.80
2022-12-18T10:27:24.166Z,-5.92
2022-12-18T10:28:24.136Z,-6.13
2022-12-18T10:29:24.152Z,-6.09
2022-12-18T10:30:24.110Z,-5.99
2022-12-18T10:31:24.682Z,-5.71
2022-12-18T10:32:24.133Z,-5.57
2022-12-18T10:33:24.105Z,-5.41
2022-12-18T10:34:24.188Z,-5.43
2022-12-18T10:35:24.082Z,-5.43
2022-12-18T10:36:24.080Z,-5.90
2022-12-18T10:37:24.118Z,-6.24
2022-12-18T10:38:24.078Z,-6.60
2022-12-18T10:39:24.103Z,-7.00
2022-12-18T10:40:24.101Z,-6.85
2022-12-18T10:41:24.059Z,-6.59
2022-12-18T10:42:24.053Z,-6.92
2022-12-18T10:43:24.061Z,-7.00
2022-12-18T10:44:24.075Z,-7.11
2022-12-18T10:45:24.018Z,-7.03
2022-12-18T10:46:24.093Z,-6.87
2022-12-18T10:47:24.025Z,-6.56
2022-12-18T10:48:24.006Z,-6.34
2022-12-18T10:49:24.083Z,-6.10
2022-12-18T10:50:26.197Z,-5.98
2022-12-18T10:51:25.022Z,-5.87
2022-12-18T10:52:24.014Z,-5.64
2022-12-18T10:53:24.112Z,-5.48
2022-12-18T10:54:23.974Z,-5.53
2022-12-18T10:55:23.987Z,-5.53
2022-12-18T10:56:23.972Z,-5.43
2022-12-18T10:57:23.974Z,-5.25
2022-12-18T10:58:38.695Z,-4.94
2022-12-18T10:59:25.949Z,-4.93
2022-12-18T11:00:23.923Z,-4.87
2022-12-18T11:01:24.070Z,-4.87
2022-12-18T11:02:24.182Z,-4.88
2022-12-18T11:03:23.946Z,-4.87
2022-12-18T11:04:23.921Z,-4.77
2022-12-18T11:05:23.890Z,-4.72
2022-12-18T11:06:24.004Z,-4.67
2022-12-18T11:07:23.936Z,-4.55
2022-12-18T11:08:23.871Z,-4.41
2022-12-18T11:09:23.919Z,-5.21
2022-12-18T11:10:23.909Z,-5.45
2022-12-18T11:11:23.888Z,-5.33
2022-12-18T11:12:23.883Z,-5.09
2022-12-18T11:13:23.867Z,-5.17
2022-12-18T11:14:23.883Z,-4.97
2022-12-18T11:15:23.848Z,-5.05
2022-12-18T11:16:23.930Z,-5.06
2022-12-18T11:17:25.850Z,-4.94
2022-12-18T11:18:24.815Z,-4.88
2022-12-18T11:19:23.897Z,-4.85
2022-12-18T11:20:23.824Z,-5.06
2022-12-18T11:21:23.805Z,-5.13
2022-12-18T11:22:23.891Z,-5.17
2022-12-18T11:23:23.850Z,-5.39
2022-12-18T11:24:23.794Z,-5.52
2022-12-18T11:25:32.988Z,-5.53
2022-12-18T11:26:25.765Z,-5.46
2022-12-18T11:27:23.813Z,-5.30
2022-12-18T11:28:23.796Z,-5.35
2022-12-18T11:29:23.732Z,-5.39
2022-12-18T11:30:23.758Z,-5.42
2022-12-18T11:31:23.784Z,-5.43
2022-12-18T11:32:23.753Z,-5.42
2022-12-18T11:33:24.188Z,-5.16
2022-12-18T11:34:31.005Z,-5.27
2022-12-18T11:35:25.691Z,-5.28
2022-12-18T11:36:23.726Z,-5.41
2022-12-18T11:37:23.685Z,-5.35
2022-12-18T11:38:24.844Z,-5.41
2022-12-18T11:39:23.719Z,-5.38
2022-12-18T11:40:23.689Z,-5.33
2022-12-18T11:41:23.733Z,-5.30
2022-12-18T11:42:23.666Z,-5.11
2022-12-18T11:43:23.668Z,-5.01
2022-12-18T11:44:23.710Z,-4.87
2022-12-18T11:45:23.658Z,-4.76
2022-12-18T11:46:23.697Z,-4.51
2022-12-18T11:47:23.627Z,-4.38
2022-12-18T11:48:23.628Z,-4.23
2022-12-18T11:49:23.652Z,-4.23
2022-12-18T11:50:23.674Z,-4.07
2022-12-18T11:51:27.163Z,-4.06
2022-12-18T11:52:24.655Z,-3.97
2022-12-18T11:53:23.644Z,-4.01
2022-12-18T11:54:23.692Z,-4.07
2022-12-18T11:55:23.668Z,-4.13
2022-12-18T11:56:23.576Z,-4.26
2022-12-18T11:57:23.584Z,-4.38
2022-12-18T11:58:29.373Z,-4.74
2022-12-18T11:59:24.611Z,-5.06
2022-12-18T12:00:23.572Z,-5.06
2022-12-18T12:01:23.597Z,-5.17
2022-12-18T12:02:23.821Z,-4.93
2022-12-18T12:03:23.576Z,-4.74
2022-12-18T12:04:23.651Z,-4.56
2022-12-18T12:05:23.553Z,-4.93
2022-12-18T12:06:23.512Z,-5.01
2022-12-18T12:07:23.539Z,-5.11
2022-12-18T12:08:23.535Z,-5.02
2022-12-18T12:09:23.497Z,-4.93
2022-12-18T12:10:23.586Z,-4.83
2022-12-18T12:11:24.475Z,-4.65
2022-12-18T12:12:23.467Z,-4.46
2022-12-18T12:13:23.505Z,-4.31
2022-12-18T12:14:23.478Z,-4.19
2022-12-18T12:15:23.480Z,-3.98
2022-12-18T12:16:23.511Z,-3.94
2022-12-18T12:17:23.444Z,-3.77
2022-12-18T12:18:23.465Z,-3.65
2022-12-18T12:19:23.537Z,-3.84
2022-12-18T12:20:23.420Z,-4.09
2022-12-18T12:21:23.443Z,-4.17
2022-12-18T12:22:23.433Z,-4.15
2022-12-18T12:23:27.497Z,-4.28
2022-12-18T12:24:24.424Z,-4.49
2022-12-18T12:25:23.376Z,-4.28
2022-12-18T12:26:23.449Z,-4.20
2022-12-18T12:27:24.791Z,-4.09
2022-12-18T12:28:23.373Z,-3.94
2022-12-18T12:29:23.407Z,-3.80
2022-12-18T12:30:23.380Z,-3.68
2022-12-18T12:31:23.435Z,-3.64
2022-12-18T12:32:23.344Z,-3.52
2022-12-18T12:33:23.372Z,-3.54
2022-12-18T12:34:23.336Z,-3.59
2022-12-18T12:35:23.348Z,-3.62
2022-12-18T12:36:23.488Z,-3.83
2022-12-18T12:37:23.355Z,-4.26
2022-12-18T12:38:23.317Z,-4.48
2022-12-18T12:39:23.384Z,-4.56
2022-12-18T12:40:50.193Z,-4.51
2022-12-18T12:41:25.355Z,-4.37
2022-12-18T12:42:23.302Z,-4.30
2022-12-18T12:43:23.339Z,-4.23
2022-12-18T12:44:23.302Z,-4.02
2022-12-18T12:45:23.397Z,-4.06
2022-12-18T12:46:23.420Z,-3.92
2022-12-18T12:47:23.288Z,-3.83
2022-12-18T12:48:23.278Z,-3.72
2022-12-18T12:49:23.248Z,-3.59
2022-12-18T12:50:23.325Z,-3.49
2022-12-18T12:51:23.285Z,-3.40